sensor_id;sensor_type;location;lat;lon;timestamp;P1;durP1;ratioP1;P2;durP2;ratioP2
14007;SDS011;61651;45.508;12.232;2022-10-16T00:00:45;39.92;;;30.33;;
14007;SDS011;61651;45.508;12.232;2022-10-16T00:03:47;40.58;;;30.35;;
14007;SDS011;61651;45.508;12.232;2022-10-16T00:06:50;41.90;;;30.00;;
14007;SDS011;61651;45.508;12.232;2022-10-16T00:09:52;37.67;;;28.98;;
14007;SDS011;61651;45.508;12.232;2022-10-16T00:12:54;37.67;;;28.88;;
14007;SDS011;61651;45.508;12.232;2022-10-16T00:15:58;40.03;;;31.08;;
14007;SDS011;61651;45.508;12.232;2022-10-16T00:19:01;41.55;;;30.17;;
14007;SDS011;61651;45.508;12.232;2022-10-16T00:22:03;39.33;;;29.52;;
14007;SDS011;61651;45.508;12.232;2022-10-16T00:25:05;35.08;;;27.50;;
14007;SDS011;61651;45.508;12.232;2022-10-16T00:28:08;38.90;;;29.02;;
14007;SDS011;61651;45.508;12.232;2022-10-16T00:31:11;38.53;;;30.08;;
14007;SDS011;61651;45.508;12.232;2022-10-16T00:34:13;36.05;;;27.40;;
14007;SDS011;61651;45.508;12.232;2022-10-16T00:37:16;40.72;;;29.35;;
14007;SDS011;61651;45.508;12.232;2022-10-16T00:40:18;35.85;;;26.20;;
14007;SDS011;61651;45.508;12.232;2022-10-16T00:43:33;38.10;;;28.70;;
14007;SDS011;61651;45.508;12.232;2022-10-16T00:46:40;34.78;;;26.05;;
14007;SDS011;61651;45.508;12.232;2022-10-16T00:49:43;39.28;;;27.23;;
14007;SDS011;61651;45.508;12.232;2022-10-16T00:52:46;37.65;;;28.48;;
14007;SDS011;61651;45.508;12.232;2022-10-16T00:55:49;33.45;;;26.90;;
14007;SDS011;61651;45.508;12.232;2022-10-16T00:58:51;40.10;;;28.00;;
14007;SDS011;61651;45.508;12.232;2022-10-16T01:01:55;37.83;;;29.67;;
14007;SDS011;61651;45.508;12.232;2022-10-16T01:04:58;39.53;;;29.52;;
14007;SDS011;61651;45.508;12.232;2022-10-16T01:08:03;33.10;;;25.35;;
14007;SDS011;61651;45.508;12.232;2022-10-16T01:11:11;36.80;;;29.50;;
14007;SDS011;61651;45.508;12.232;2022-10-16T01:14:21;40.55;;;31.00;;
14007;SDS011;61651;45.508;12.232;2022-10-16T01:17:31;46.30;;;32.67;;
14007;SDS011;61651;45.508;12.232;2022-10-16T01:20:38;47.38;;;34.22;;
14007;SDS011;61651;45.508;12.232;2022-10-16T01:23:47;48.88;;;33.95;;
14007;SDS011;61651;45.508;12.232;2022-10-16T01:27:02;49.38;;;34.53;;
14007;SDS011;61651;45.508;12.232;2022-10-16T01:30:09;49.97;;;35.45;;
14007;SDS011;61651;45.508;12.232;2022-10-16T01:33:14;49.80;;;34.40;;
14007;SDS011;61651;45.508;12.232;2022-10-16T01:36:24;54.63;;;35.85;;
14007;SDS011;61651;45.508;12.232;2022-10-16T01:39:31;49.47;;;35.50;;
14007;SDS011;61651;45.508;12.232;2022-10-16T01:42:38;54.05;;;36.80;;
14007;SDS011;61651;45.508;12.232;2022-10-16T01:45:44;52.60;;;36.33;;
14007;SDS011;61651;45.508;12.232;2022-10-16T01:48:47;55.15;;;38.53;;
14007;SDS011;61651;45.508;12.232;2022-10-16T01:51:52;58.35;;;39.30;;
14007;SDS011;61651;45.508;12.232;2022-10-16T01:54:57;51.95;;;36.63;;
14007;SDS011;61651;45.508;12.232;2022-10-16T01:58:03;52.88;;;39.13;;
14007;SDS011;61651;45.508;12.232;2022-10-16T02:01:08;54.83;;;38.92;;
14007;SDS011;61651;45.508;12.232;2022-10-16T02:04:15;56.75;;;37.83;;
14007;SDS011;61651;45.508;12.232;2022-10-16T02:07:22;60.22;;;39.35;;
14007;SDS011;61651;45.508;12.232;2022-10-16T02:10:24;62.03;;;39.25;;
14007;SDS011;61651;45.508;12.232;2022-10-16T02:13:33;57.92;;;38.60;;
14007;SDS011;61651;45.508;12.232;2022-10-16T02:16:40;60.45;;;39.35;;
14007;SDS011;61651;45.508;12.232;2022-10-16T02:19:44;57.42;;;40.20;;
14007;SDS011;61651;45.508;12.232;2022-10-16T02:22:49;60.20;;;40.85;;
14007;SDS011;61651;45.508;12.232;2022-10-16T02:25:52;59.55;;;40.78;;
14007;SDS011;61651;45.508;12.232;2022-10-16T02:28:59;58.58;;;40.08;;
14007;SDS011;61651;45.508;12.232;2022-10-16T02:32:04;59.80;;;39.75;;
14007;SDS011;61651;45.508;12.232;2022-10-16T02:35:08;61.42;;;39.67;;
14007;SDS011;61651;45.508;12.232;2022-10-16T02:38:11;58.53;;;39.75;;
14007;SDS011;61651;45.508;12.232;2022-10-16T02:41:15;64.75;;;42.53;;
14007;SDS011;61651;45.508;12.232;2022-10-16T02:44:18;59.53;;;40.35;;
14007;SDS011;61651;45.508;12.232;2022-10-16T02:47:21;61.47;;;40.58;;
14007;SDS011;61651;45.508;12.232;2022-10-16T02:50:23;59.90;;;40.80;;
14007;SDS011;61651;45.508;12.232;2022-10-16T02:53:25;60.88;;;40.22;;
14007;SDS011;61651;45.508;12.232;2022-10-16T02:56:27;66.18;;;44.80;;
14007;SDS011;61651;45.508;12.232;2022-10-16T02:59:31;60.05;;;39.25;;
14007;SDS011;61651;45.508;12.232;2022-10-16T03:02:33;62.58;;;42.90;;
14007;SDS011;61651;45.508;12.232;2022-10-16T03:05:35;61.38;;;39.50;;
14007;SDS011;61651;45.508;12.232;2022-10-16T03:08:37;62.60;;;42.28;;
14007;SDS011;61651;45.508;12.232;2022-10-16T03:11:39;61.22;;;40.00;;
14007;SDS011;61651;45.508;12.232;2022-10-16T03:14:42;60.90;;;41.30;;
14007;SDS011;61651;45.508;12.232;2022-10-16T03:17:44;60.60;;;42.58;;
14007;SDS011;61651;45.508;12.232;2022-10-16T03:20:47;58.35;;;40.17;;
14007;SDS011;61651;45.508;12.232;2022-10-16T03:23:49;55.05;;;37.30;;
14007;SDS011;61651;45.508;12.232;2022-10-16T03:26:50;55.08;;;39.35;;
14007;SDS011;61651;45.508;12.232;2022-10-16T03:29:54;52.72;;;38.70;;
14007;SDS011;61651;45.508;12.232;2022-10-16T03:32:56;57.47;;;39.13;;
14007;SDS011;61651;45.508;12.232;2022-10-16T03:35:58;66.30;;;41.50;;
14007;SDS011;61651;45.508;12.232;2022-10-16T03:39:00;61.38;;;41.72;;
14007;SDS011;61651;45.508;12.232;2022-10-16T03:42:02;63.40;;;41.15;;
14007;SDS011;61651;45.508;12.232;2022-10-16T03:45:06;57.13;;;39.67;;
14007;SDS011;61651;45.508;12.232;2022-10-16T03:48:08;60.08;;;39.10;;
14007;SDS011;61651;45.508;12.232;2022-10-16T03:51:10;68.32;;;41.90;;
14007;SDS011;61651;45.508;12.232;2022-10-16T03:54:12;60.95;;;40.58;;
14007;SDS011;61651;45.508;12.232;2022-10-16T03:57:14;57.67;;;39.75;;
14007;SDS011;61651;45.508;12.232;2022-10-16T04:00:18;61.65;;;40.80;;
14007;SDS011;61651;45.508;12.232;2022-10-16T04:03:19;59.45;;;40.90;;
14007;SDS011;61651;45.508;12.232;2022-10-16T04:06:23;61.38;;;40.67;;
14007;SDS011;61651;45.508;12.232;2022-10-16T04:09:24;61.65;;;40.53;;
14007;SDS011;61651;45.508;12.232;2022-10-16T04:12:26;59.83;;;40.58;;
14007;SDS011;61651;45.508;12.232;2022-10-16T04:15:30;58.72;;;41.40;;
14007;SDS011;61651;45.508;12.232;2022-10-16T04:18:32;60.83;;;42.30;;
14007;SDS011;61651;45.508;12.232;2022-10-16T04:21:35;61.00;;;42.28;;
14007;SDS011;61651;45.508;12.232;2022-10-16T04:24:37;62.75;;;40.60;;
14007;SDS011;61651;45.508;12.232;2022-10-16T04:27:39;65.43;;;45.42;;
14007;SDS011;61651;45.508;12.232;2022-10-16T04:30:42;63.92;;;40.80;;
14007;SDS011;61651;45.508;12.232;2022-10-16T04:33:44;59.75;;;41.88;;
14007;SDS011;61651;45.508;12.232;2022-10-16T04:36:46;65.78;;;40.42;;
14007;SDS011;61651;45.508;12.232;2022-10-16T04:39:49;58.42;;;40.28;;
14007;SDS011;61651;45.508;12.232;2022-10-16T04:42:51;55.38;;;40.20;;
14007;SDS011;61651;45.508;12.232;2022-10-16T04:45:54;56.58;;;38.60;;
14007;SDS011;61651;45.508;12.232;2022-10-16T04:48:56;58.10;;;40.05;;
14007;SDS011;61651;45.508;12.232;2022-10-16T04:51:59;59.50;;;40.05;;
14007;SDS011;61651;45.508;12.232;2022-10-16T04:55:01;58.40;;;39.22;;
14007;SDS011;61651;45.508;12.232;2022-10-16T04:58:03;57.78;;;39.10;;
14007;SDS011;61651;45.508;12.232;2022-10-16T05:01:07;54.25;;;39.03;;
14007;SDS011;61651;45.508;12.232;2022-10-16T05:04:09;56.47;;;39.60;;
14007;SDS011;61651;45.508;12.232;2022-10-16T05:07:11;49.28;;;37.10;;
14007;SDS011;61651;45.508;12.232;2022-10-16T05:10:13;56.30;;;40.65;;
14007;SDS011;61651;45.508;12.232;2022-10-16T05:13:15;54.65;;;38.20;;
14007;SDS011;61651;45.508;12.232;2022-10-16T05:16:19;49.63;;;39.05;;
14007;SDS011;61651;45.508;12.232;2022-10-16T05:19:21;53.80;;;38.10;;
14007;SDS011;61651;45.508;12.232;2022-10-16T05:22:22;50.30;;;37.95;;
14007;SDS011;61651;45.508;12.232;2022-10-16T05:25:25;53.05;;;37.88;;
14007;SDS011;61651;45.508;12.232;2022-10-16T05:28:27;57.30;;;40.42;;
14007;SDS011;61651;45.508;12.232;2022-10-16T05:31:31;51.20;;;39.08;;
14007;SDS011;61651;45.508;12.232;2022-10-16T05:34:33;48.28;;;36.55;;
14007;SDS011;61651;45.508;12.232;2022-10-16T05:37:35;52.20;;;37.80;;
14007;SDS011;61651;45.508;12.232;2022-10-16T05:40:37;53.22;;;38.45;;
14007;SDS011;61651;45.508;12.232;2022-10-16T05:43:39;47.83;;;35.80;;
14007;SDS011;61651;45.508;12.232;2022-10-16T05:46:43;47.15;;;35.63;;
14007;SDS011;61651;45.508;12.232;2022-10-16T05:49:45;50.83;;;37.58;;
14007;SDS011;61651;45.508;12.232;2022-10-16T05:52:47;51.53;;;37.38;;
14007;SDS011;61651;45.508;12.232;2022-10-16T05:55:51;48.38;;;37.47;;
14007;SDS011;61651;45.508;12.232;2022-10-16T05:58:53;50.95;;;36.75;;
14007;SDS011;61651;45.508;12.232;2022-10-16T06:01:57;46.95;;;35.10;;
14007;SDS011;61651;45.508;12.232;2022-10-16T06:04:59;49.65;;;37.72;;
14007;SDS011;61651;45.508;12.232;2022-10-16T06:08:01;47.90;;;35.85;;
14007;SDS011;61651;45.508;12.232;2022-10-16T06:11:03;47.10;;;35.80;;
14007;SDS011;61651;45.508;12.232;2022-10-16T06:14:07;48.33;;;35.40;;
14007;SDS011;61651;45.508;12.232;2022-10-16T06:17:11;43.22;;;33.33;;
14007;SDS011;61651;45.508;12.232;2022-10-16T06:20:13;46.58;;;33.72;;
14007;SDS011;61651;45.508;12.232;2022-10-16T06:23:15;45.72;;;34.92;;
14007;SDS011;61651;45.508;12.232;2022-10-16T06:26:18;40.00;;;32.13;;
14007;SDS011;61651;45.508;12.232;2022-10-16T06:29:21;45.58;;;35.08;;
14007;SDS011;61651;45.508;12.232;2022-10-16T06:32:25;44.10;;;33.33;;
14007;SDS011;61651;45.508;12.232;2022-10-16T06:35:28;41.78;;;30.73;;
14007;SDS011;61651;45.508;12.232;2022-10-16T06:38:32;41.95;;;31.17;;
14007;SDS011;61651;45.508;12.232;2022-10-16T06:41:34;42.95;;;33.38;;
14007;SDS011;61651;45.508;12.232;2022-10-16T06:44:36;42.30;;;33.13;;
14007;SDS011;61651;45.508;12.232;2022-10-16T06:47:40;43.70;;;30.42;;
14007;SDS011;61651;45.508;12.232;2022-10-16T06:50:42;45.58;;;32.83;;
14007;SDS011;61651;45.508;12.232;2022-10-16T06:53:44;39.90;;;31.77;;
14007;SDS011;61651;45.508;12.232;2022-10-16T06:56:49;42.38;;;33.33;;
14007;SDS011;61651;45.508;12.232;2022-10-16T06:59:54;41.72;;;33.72;;
14007;SDS011;61651;45.508;12.232;2022-10-16T07:02:57;41.33;;;30.50;;
14007;SDS011;61651;45.508;12.232;2022-10-16T07:06:01;46.25;;;31.80;;
14007;SDS011;61651;45.508;12.232;2022-10-16T07:09:08;42.10;;;32.10;;
14007;SDS011;61651;45.508;12.232;2022-10-16T07:12:11;43.45;;;33.10;;
14007;SDS011;61651;45.508;12.232;2022-10-16T07:15:13;38.10;;;29.95;;
14007;SDS011;61651;45.508;12.232;2022-10-16T07:18:17;41.88;;;32.30;;
14007;SDS011;61651;45.508;12.232;2022-10-16T07:21:19;45.40;;;31.67;;
14007;SDS011;61651;45.508;12.232;2022-10-16T07:24:22;41.45;;;30.55;;
14007;SDS011;61651;45.508;12.232;2022-10-16T07:27:24;41.45;;;31.95;;
14007;SDS011;61651;45.508;12.232;2022-10-16T07:30:26;43.58;;;32.80;;
14007;SDS011;61651;45.508;12.232;2022-10-16T07:33:30;46.50;;;33.78;;
14007;SDS011;61651;45.508;12.232;2022-10-16T07:36:33;41.75;;;33.58;;
14007;SDS011;61651;45.508;12.232;2022-10-16T07:39:35;41.08;;;31.67;;
14007;SDS011;61651;45.508;12.232;2022-10-16T07:42:37;46.70;;;33.92;;
14007;SDS011;61651;45.508;12.232;2022-10-16T07:45:46;43.70;;;32.70;;
14007;SDS011;61651;45.508;12.232;2022-10-16T07:48:53;47.28;;;33.42;;
14007;SDS011;61651;45.508;12.232;2022-10-16T07:51:55;44.70;;;34.05;;
14007;SDS011;61651;45.508;12.232;2022-10-16T07:54:57;47.38;;;35.47;;
14007;SDS011;61651;45.508;12.232;2022-10-16T07:57:59;43.33;;;33.15;;
14007;SDS011;61651;45.508;12.232;2022-10-16T08:01:02;43.05;;;34.40;;
14007;SDS011;61651;45.508;12.232;2022-10-16T08:04:07;43.25;;;34.40;;
14007;SDS011;61651;45.508;12.232;2022-10-16T08:07:10;49.13;;;36.50;;
14007;SDS011;61651;45.508;12.232;2022-10-16T08:10:14;48.03;;;36.45;;
14007;SDS011;61651;45.508;12.232;2022-10-16T08:13:19;44.63;;;35.42;;
14007;SDS011;61651;45.508;12.232;2022-10-16T08:16:21;41.72;;;32.85;;
14007;SDS011;61651;45.508;12.232;2022-10-16T08:19:25;43.60;;;34.55;;
14007;SDS011;61651;45.508;12.232;2022-10-16T08:22:27;44.50;;;33.05;;
14007;SDS011;61651;45.508;12.232;2022-10-16T08:25:29;41.78;;;34.08;;
14007;SDS011;61651;45.508;12.232;2022-10-16T08:28:31;43.78;;;34.75;;
14007;SDS011;61651;45.508;12.232;2022-10-16T08:31:33;51.95;;;35.00;;
14007;SDS011;61651;45.508;12.232;2022-10-16T08:34:37;43.72;;;33.67;;
14007;SDS011;61651;45.508;12.232;2022-10-16T08:37:39;43.90;;;33.85;;
14007;SDS011;61651;45.508;12.232;2022-10-16T08:40:41;43.90;;;33.17;;
14007;SDS011;61651;45.508;12.232;2022-10-16T08:43:50;47.10;;;38.55;;
14007;SDS011;61651;45.508;12.232;2022-10-16T08:47:02;44.00;;;33.58;;
14007;SDS011;61651;45.508;12.232;2022-10-16T08:50:17;47.10;;;33.25;;
14007;SDS011;61651;45.508;12.232;2022-10-16T08:53:24;44.33;;;34.42;;
14007;SDS011;61651;45.508;12.232;2022-10-16T08:56:31;42.30;;;32.97;;
14007;SDS011;61651;45.508;12.232;2022-10-16T08:59:35;43.35;;;33.58;;
14007;SDS011;61651;45.508;12.232;2022-10-16T09:02:37;44.38;;;32.83;;
14007;SDS011;61651;45.508;12.232;2022-10-16T09:05:50;49.00;;;36.22;;
14007;SDS011;61651;45.508;12.232;2022-10-16T09:09:05;42.97;;;33.40;;
14007;SDS011;61651;45.508;12.232;2022-10-16T09:12:21;44.17;;;34.58;;
14007;SDS011;61651;45.508;12.232;2022-10-16T09:15:29;42.38;;;33.47;;
14007;SDS011;61651;45.508;12.232;2022-10-16T09:18:37;44.70;;;33.90;;
14007;SDS011;61651;45.508;12.232;2022-10-16T09:21:47;42.80;;;33.78;;
14007;SDS011;61651;45.508;12.232;2022-10-16T09:24:51;40.42;;;32.22;;
14007;SDS011;61651;45.508;12.232;2022-10-16T09:27:54;44.08;;;32.88;;
14007;SDS011;61651;45.508;12.232;2022-10-16T09:30:56;41.65;;;31.95;;
14007;SDS011;61651;45.508;12.232;2022-10-16T09:33:59;45.30;;;31.50;;
14007;SDS011;61651;45.508;12.232;2022-10-16T09:37:09;42.90;;;31.90;;
14007;SDS011;61651;45.508;12.232;2022-10-16T09:40:23;44.53;;;33.47;;
14007;SDS011;61651;45.508;12.232;2022-10-16T09:43:26;40.30;;;31.05;;
14007;SDS011;61651;45.508;12.232;2022-10-16T09:46:34;38.45;;;29.45;;
14007;SDS011;61651;45.508;12.232;2022-10-16T09:49:37;36.97;;;29.73;;
14007;SDS011;61651;45.508;12.232;2022-10-16T09:52:41;37.47;;;28.92;;
14007;SDS011;61651;45.508;12.232;2022-10-16T09:55:49;42.80;;;35.75;;
14007;SDS011;61651;45.508;12.232;2022-10-16T09:58:51;38.35;;;30.27;;
14007;SDS011;61651;45.508;12.232;2022-10-16T10:01:54;33.90;;;25.83;;
14007;SDS011;61651;45.508;12.232;2022-10-16T10:04:56;34.25;;;26.85;;
14007;SDS011;61651;45.508;12.232;2022-10-16T10:08:00;34.35;;;27.63;;
14007;SDS011;61651;45.508;12.232;2022-10-16T10:11:06;33.75;;;28.13;;
14007;SDS011;61651;45.508;12.232;2022-10-16T10:14:09;38.25;;;32.80;;
14007;SDS011;61651;45.508;12.232;2022-10-16T10:17:20;39.63;;;28.02;;
14007;SDS011;61651;45.508;12.232;2022-10-16T10:20:24;37.50;;;28.08;;
14007;SDS011;61651;45.508;12.232;2022-10-16T10:23:29;36.30;;;27.65;;
14007;SDS011;61651;45.508;12.232;2022-10-16T10:26:32;30.45;;;26.08;;
14007;SDS011;61651;45.508;12.232;2022-10-16T10:29:41;35.83;;;25.55;;
14007;SDS011;61651;45.508;12.232;2022-10-16T10:32:57;31.30;;;25.75;;
14007;SDS011;61651;45.508;12.232;2022-10-16T10:36:22;34.15;;;25.17;;
14007;SDS011;61651;45.508;12.232;2022-10-16T10:39:32;35.38;;;25.98;;
14007;SDS011;61651;45.508;12.232;2022-10-16T10:42:42;31.50;;;25.80;;
14007;SDS011;61651;45.508;12.232;2022-10-16T10:45:50;27.00;;;22.52;;
14007;SDS011;61651;45.508;12.232;2022-10-16T10:52:44;28.75;;;25.05;;
14007;SDS011;61651;45.508;12.232;2022-10-16T10:55:59;30.90;;;24.98;;
14007;SDS011;61651;45.508;12.232;2022-10-16T10:59:16;31.42;;;26.85;;
14007;SDS011;61651;45.508;12.232;2022-10-16T11:02:53;31.52;;;26.35;;
14007;SDS011;61651;45.508;12.232;2022-10-16T11:06:07;30.02;;;23.10;;
14007;SDS011;61651;45.508;12.232;2022-10-16T11:09:12;31.30;;;24.63;;
14007;SDS011;61651;45.508;12.232;2022-10-16T11:12:20;28.10;;;24.20;;
14007;SDS011;61651;45.508;12.232;2022-10-16T11:15:27;27.55;;;23.85;;
14007;SDS011;61651;45.508;12.232;2022-10-16T11:18:38;24.58;;;21.83;;
14007;SDS011;61651;45.508;12.232;2022-10-16T11:21:49;25.58;;;22.83;;
14007;SDS011;61651;45.508;12.232;2022-10-16T11:24:59;22.63;;;20.08;;
14007;SDS011;61651;45.508;12.232;2022-10-16T11:28:10;23.65;;;19.42;;
14007;SDS011;61651;45.508;12.232;2022-10-16T11:31:16;23.83;;;19.92;;
14007;SDS011;61651;45.508;12.232;2022-10-16T11:34:24;21.65;;;19.35;;
14007;SDS011;61651;45.508;12.232;2022-10-16T11:37:30;20.50;;;18.30;;
14007;SDS011;61651;45.508;12.232;2022-10-16T11:40:38;25.33;;;19.40;;
14007;SDS011;61651;45.508;12.232;2022-10-16T11:43:45;20.70;;;18.58;;
14007;SDS011;61651;45.508;12.232;2022-10-16T11:46:58;21.73;;;18.80;;
14007;SDS011;61651;45.508;12.232;2022-10-16T11:50:09;21.52;;;19.35;;
14007;SDS011;61651;45.508;12.232;2022-10-16T11:53:28;22.05;;;18.05;;
14007;SDS011;61651;45.508;12.232;2022-10-16T11:56:43;21.65;;;19.35;;
14007;SDS011;61651;45.508;12.232;2022-10-16T11:59:50;23.38;;;19.67;;
14007;SDS011;61651;45.508;12.232;2022-10-16T12:02:57;27.55;;;19.30;;
14007;SDS011;61651;45.508;12.232;2022-10-16T12:06:06;28.50;;;22.35;;
14007;SDS011;61651;45.508;12.232;2022-10-16T12:09:20;21.33;;;19.13;;
14007;SDS011;61651;45.508;12.232;2022-10-16T12:12:25;21.08;;;18.73;;
14007;SDS011;61651;45.508;12.232;2022-10-16T12:15:31;22.67;;;19.70;;
14007;SDS011;61651;45.508;12.232;2022-10-16T12:18:34;23.10;;;19.95;;
14007;SDS011;61651;45.508;12.232;2022-10-16T12:21:36;23.42;;;20.23;;
14007;SDS011;61651;45.508;12.232;2022-10-16T12:24:39;23.90;;;20.60;;
14007;SDS011;61651;45.508;12.232;2022-10-16T12:27:43;22.70;;;19.52;;
14007;SDS011;61651;45.508;12.232;2022-10-16T12:30:53;26.38;;;21.55;;
14007;SDS011;61651;45.508;12.232;2022-10-16T12:33:57;27.30;;;23.25;;
14007;SDS011;61651;45.508;12.232;2022-10-16T12:37:13;25.73;;;21.77;;
14007;SDS011;61651;45.508;12.232;2022-10-16T12:40:25;23.80;;;21.27;;
14007;SDS011;61651;45.508;12.232;2022-10-16T12:43:37;23.27;;;20.75;;
14007;SDS011;61651;45.508;12.232;2022-10-16T12:46:43;23.80;;;21.20;;
14007;SDS011;61651;45.508;12.232;2022-10-16T12:49:48;25.92;;;20.63;;
14007;SDS011;61651;45.508;12.232;2022-10-16T12:52:51;23.27;;;19.63;;
14007;SDS011;61651;45.508;12.232;2022-10-16T12:55:56;21.30;;;19.05;;
14007;SDS011;61651;45.508;12.232;2022-10-16T12:59:06;19.95;;;16.85;;
14007;SDS011;61651;45.508;12.232;2022-10-16T13:05:54;17.38;;;15.35;;
14007;SDS011;61651;45.508;12.232;2022-10-16T13:09:13;18.83;;;16.27;;
14007;SDS011;61651;45.508;12.232;2022-10-16T13:16:16;17.65;;;15.88;;
14007;SDS011;61651;45.508;12.232;2022-10-16T13:19:28;19.15;;;17.13;;
14007;SDS011;61651;45.508;12.232;2022-10-16T13:22:33;20.15;;;18.15;;
14007;SDS011;61651;45.508;12.232;2022-10-16T13:25:48;23.77;;;21.38;;
14007;SDS011;61651;45.508;12.232;2022-10-16T13:28:58;21.02;;;18.85;;
14007;SDS011;61651;45.508;12.232;2022-10-16T13:32:01;21.35;;;19.20;;
14007;SDS011;61651;45.508;12.232;2022-10-16T13:35:25;20.67;;;18.52;;
14007;SDS011;61651;45.508;12.232;2022-10-16T13:38:29;20.25;;;18.13;;
14007;SDS011;61651;45.508;12.232;2022-10-16T13:41:32;19.38;;;17.33;;
14007;SDS011;61651;45.508;12.232;2022-10-16T13:44:36;21.75;;;19.13;;
14007;SDS011;61651;45.508;12.232;2022-10-16T13:47:41;20.52;;;18.33;;
14007;SDS011;61651;45.508;12.232;2022-10-16T13:50:44;21.95;;;19.63;;
14007;SDS011;61651;45.508;12.232;2022-10-16T13:53:46;20.30;;;18.33;;
14007;SDS011;61651;45.508;12.232;2022-10-16T13:56:49;22.10;;;19.75;;
14007;SDS011;61651;45.508;12.232;2022-10-16T13:59:53;22.35;;;20.05;;
14007;SDS011;61651;45.508;12.232;2022-10-16T14:02:57;21.20;;;18.98;;
14007;SDS011;61651;45.508;12.232;2022-10-16T14:06:05;21.30;;;19.13;;
14007;SDS011;61651;45.508;12.232;2022-10-16T14:09:14;23.48;;;19.20;;
14007;SDS011;61651;45.508;12.232;2022-10-16T14:12:24;22.55;;;20.15;;
14007;SDS011;61651;45.508;12.232;2022-10-16T14:15:26;20.85;;;18.65;;
14007;SDS011;61651;45.508;12.232;2022-10-16T14:18:28;21.38;;;19.17;;
14007;SDS011;61651;45.508;12.232;2022-10-16T14:21:32;21.85;;;19.42;;
14007;SDS011;61651;45.508;12.232;2022-10-16T14:24:35;19.85;;;17.95;;
14007;SDS011;61651;45.508;12.232;2022-10-16T14:27:37;20.15;;;18.08;;
14007;SDS011;61651;45.508;12.232;2022-10-16T14:30:48;21.25;;;18.98;;
14007;SDS011;61651;45.508;12.232;2022-10-16T14:33:52;20.13;;;18.02;;
14007;SDS011;61651;45.508;12.232;2022-10-16T14:36:55;20.15;;;18.15;;
14007;SDS011;61651;45.508;12.232;2022-10-16T14:40:00;19.52;;;17.50;;
14007;SDS011;61651;45.508;12.232;2022-10-16T14:43:04;19.38;;;17.40;;
14007;SDS011;61651;45.508;12.232;2022-10-16T14:46:19;20.58;;;18.42;;
14007;SDS011;61651;45.508;12.232;2022-10-16T14:49:26;20.15;;;18.08;;
14007;SDS011;61651;45.508;12.232;2022-10-16T14:52:29;21.05;;;18.23;;
14007;SDS011;61651;45.508;12.232;2022-10-16T14:55:31;20.40;;;18.23;;
14007;SDS011;61651;45.508;12.232;2022-10-16T14:58:34;21.98;;;19.77;;
14007;SDS011;61651;45.508;12.232;2022-10-16T15:01:36;21.00;;;18.80;;
14007;SDS011;61651;45.508;12.232;2022-10-16T15:04:38;22.23;;;19.92;;
14007;SDS011;61651;45.508;12.232;2022-10-16T15:07:42;22.48;;;20.08;;
14007;SDS011;61651;45.508;12.232;2022-10-16T15:10:44;21.67;;;19.45;;
14007;SDS011;61651;45.508;12.232;2022-10-16T15:13:46;22.20;;;19.92;;
14007;SDS011;61651;45.508;12.232;2022-10-16T15:16:48;21.00;;;18.85;;
14007;SDS011;61651;45.508;12.232;2022-10-16T15:19:50;22.60;;;20.30;;
14007;SDS011;61651;45.508;12.232;2022-10-16T15:22:53;21.75;;;19.55;;
14007;SDS011;61651;45.508;12.232;2022-10-16T15:25:55;21.98;;;19.80;;
14007;SDS011;61651;45.508;12.232;2022-10-16T15:28:58;23.30;;;21.00;;
14007;SDS011;61651;45.508;12.232;2022-10-16T15:32:00;23.05;;;20.65;;
14007;SDS011;61651;45.508;12.232;2022-10-16T15:35:02;24.80;;;22.20;;
14007;SDS011;61651;45.508;12.232;2022-10-16T15:38:06;24.92;;;22.23;;
14007;SDS011;61651;45.508;12.232;2022-10-16T15:41:08;25.70;;;23.00;;
14007;SDS011;61651;45.508;12.232;2022-10-16T15:44:09;25.70;;;22.98;;
14007;SDS011;61651;45.508;12.232;2022-10-16T15:47:11;24.55;;;22.13;;
14007;SDS011;61651;45.508;12.232;2022-10-16T15:50:14;25.42;;;22.70;;
14007;SDS011;61651;45.508;12.232;2022-10-16T15:53:18;25.33;;;22.75;;
14007;SDS011;61651;45.508;12.232;2022-10-16T15:56:20;25.15;;;22.73;;
14007;SDS011;61651;45.508;12.232;2022-10-16T15:59:24;26.38;;;23.75;;
14007;SDS011;61651;45.508;12.232;2022-10-16T16:02:26;25.98;;;23.27;;
14007;SDS011;61651;45.508;12.232;2022-10-16T16:05:28;25.10;;;22.60;;
14007;SDS011;61651;45.508;12.232;2022-10-16T16:08:31;26.30;;;23.55;;
14007;SDS011;61651;45.508;12.232;2022-10-16T16:11:34;26.55;;;23.73;;
14007;SDS011;61651;45.508;12.232;2022-10-16T16:14:38;26.92;;;24.23;;
14007;SDS011;61651;45.508;12.232;2022-10-16T16:17:40;26.73;;;24.05;;
14007;SDS011;61651;45.508;12.232;2022-10-16T16:20:44;26.33;;;23.63;;
14007;SDS011;61651;45.508;12.232;2022-10-16T16:23:47;27.27;;;24.48;;
14007;SDS011;61651;45.508;12.232;2022-10-16T16:26:49;27.52;;;24.63;;
14007;SDS011;61651;45.508;12.232;2022-10-16T16:29:51;27.20;;;24.40;;
14007;SDS011;61651;45.508;12.232;2022-10-16T16:32:55;27.52;;;24.73;;
14007;SDS011;61651;45.508;12.232;2022-10-16T16:35:57;30.02;;;26.17;;
14007;SDS011;61651;45.508;12.232;2022-10-16T16:39:01;29.38;;;26.27;;
14007;SDS011;61651;45.508;12.232;2022-10-16T16:42:03;28.88;;;25.75;;
14007;SDS011;61651;45.508;12.232;2022-10-16T16:45:07;30.02;;;26.92;;
14007;SDS011;61651;45.508;12.232;2022-10-16T16:48:10;30.08;;;26.88;;
14007;SDS011;61651;45.508;12.232;2022-10-16T16:51:12;30.88;;;27.67;;
14007;SDS011;61651;45.508;12.232;2022-10-16T16:54:18;29.73;;;26.48;;
14007;SDS011;61651;45.508;12.232;2022-10-16T16:57:20;30.33;;;27.23;;
14007;SDS011;61651;45.508;12.232;2022-10-16T17:00:22;31.33;;;27.67;;
14007;SDS011;61651;45.508;12.232;2022-10-16T17:03:25;30.35;;;27.13;;
14007;SDS011;61651;45.508;12.232;2022-10-16T17:06:27;30.98;;;27.60;;
14007;SDS011;61651;45.508;12.232;2022-10-16T17:09:33;31.00;;;27.67;;
14007;SDS011;61651;45.508;12.232;2022-10-16T17:12:35;31.23;;;27.95;;
14007;SDS011;61651;45.508;12.232;2022-10-16T17:15:37;35.28;;;29.27;;
14007;SDS011;61651;45.508;12.232;2022-10-16T17:18:46;30.85;;;27.52;;
14007;SDS011;61651;45.508;12.232;2022-10-16T17:21:49;34.72;;;29.02;;
14007;SDS011;61651;45.508;12.232;2022-10-16T17:24:53;33.78;;;30.13;;
14007;SDS011;61651;45.508;12.232;2022-10-16T17:27:56;32.05;;;28.63;;
14007;SDS011;61651;45.508;12.232;2022-10-16T17:31:06;34.47;;;30.75;;
14007;SDS011;61651;45.508;12.232;2022-10-16T17:34:09;33.83;;;30.27;;
14007;SDS011;61651;45.508;12.232;2022-10-16T17:37:11;32.58;;;28.33;;
14007;SDS011;61651;45.508;12.232;2022-10-16T17:40:15;31.92;;;28.58;;
14007;SDS011;61651;45.508;12.232;2022-10-16T17:43:17;33.50;;;28.67;;
14007;SDS011;61651;45.508;12.232;2022-10-16T17:46:19;33.42;;;30.02;;
14007;SDS011;61651;45.508;12.232;2022-10-16T17:49:22;32.80;;;29.27;;
14007;SDS011;61651;45.508;12.232;2022-10-16T17:52:24;36.10;;;29.73;;
14007;SDS011;61651;45.508;12.232;2022-10-16T17:55:28;32.30;;;28.90;;